createdAt,value
2022-11-05T00:00:47.195Z,98914.59
2022-11-05T00:03:48.537Z,98922.88
2022-11-05T00:06:55.436Z,98926.13
2022-11-05T00:09:47.766Z,98930.00
2022-11-05T00:12:48.001Z,98937.31
2022-11-05T00:15:54.410Z,98939.78
2022-11-05T00:18:42.797Z,98945.81
2022-11-05T00:21:43.513Z,98951.31
2022-11-05T00:24:44.612Z,98955.09
2022-11-05T00:27:33.993Z,98966.03
2022-11-05T00:30:19.321Z,98967.66
2022-11-05T00:33:08.798Z,98966.00
2022-11-05T00:35:56.769Z,98963.22
2022-11-05T00:38:39.509Z,98968.47
2022-11-05T00:41:28.417Z,98962.16
2022-11-05T00:44:36.578Z,98959.66
2022-11-05T00:47:49.349Z,98966.03
2022-11-05T00:50:38.510Z,98966.00
2022-11-05T00:53:21.051Z,98973.94
2022-11-05T00:56:09.512Z,98971.47
2022-11-05T00:58:52.026Z,98974.19
2022-11-05T01:01:40.609Z,98975.28
2022-11-05T01:04:22.814Z,98970.28
2022-11-05T01:07:11.476Z,98981.81
2022-11-05T01:09:53.800Z,98982.94
2022-11-05T01:12:42.500Z,98982.34
2022-11-05T01:15:25.834Z,98984.28
2022-11-05T01:18:14.429Z,98992.19
2022-11-05T01:21:03.415Z,98990.84
2022-11-05T01:23:45.721Z,98992.88
2022-11-05T01:26:34.407Z,98997.13
2022-11-05T01:29:31.287Z,98996.31
2022-11-05T01:32:20.005Z,99001.72
2022-11-05T01:35:02.441Z,99009.66
2022-11-05T01:37:51.983Z,99009.38
2022-11-05T01:40:34.388Z,99019.53
2022-11-05T01:43:21.979Z,99025.56
2022-11-05T01:46:12.383Z,99025.56
2022-11-05T01:49:10.364Z,99031.56
2022-11-05T01:51:59.392Z,99033.19
2022-11-05T01:54:44.261Z,99031.31
2022-11-05T01:57:33.639Z,99041.69
2022-11-05T02:00:24.503Z,99044.94
2022-11-05T02:03:14.131Z,99054.81
2022-11-05T02:05:59.377Z,99054.78
2022-11-05T02:08:58.793Z,99062.44
2022-11-05T02:11:41.396Z,99062.41
2022-11-05T02:14:30.823Z,99064.28
2022-11-05T02:17:31.502Z,99065.41
2022-11-05T02:20:27.815Z,99070.56
2022-11-05T02:23:18.511Z,99071.94
2022-11-05T02:26:51.737Z,99076.38
2022-11-05T02:29:51.491Z,99076.13
2022-11-05T02:33:06.774Z,99081.47
2022-11-05T02:36:09.512Z,99082.13
2022-11-05T02:39:05.744Z,99087.31
2022-11-05T02:42:05.153Z,99097.91
2022-11-05T02:45:39.202Z,99104.97
2022-11-05T02:49:10.497Z,99107.91
2022-11-05T02:52:14.761Z,99122.72
2022-11-05T02:55:11.509Z,99129.22
2022-11-05T02:58:00.880Z,99132.22
2022-11-05T03:00:59.499Z,99138.00
2022-11-05T03:03:55.810Z,99138.69
2022-11-05T03:06:57.421Z,99147.69
2022-11-05T03:10:19.478Z,99145.81
2022-11-05T03:13:31.601Z,99151.75
2022-11-05T03:16:56.497Z,99158.91
2022-11-05T03:20:19.492Z,99159.88
2022-11-05T03:23:17.546Z,99161.81
2022-11-05T03:26:21.488Z,99160.34
2022-11-05T03:29:18.843Z,99165.63
2022-11-05T03:32:04.491Z,99168.88
2022-11-05T03:34:58.193Z,99175.03
2022-11-05T03:37:41.409Z,99181.22
2022-11-05T03:40:31.797Z,99180.75
2022-11-05T03:43:16.410Z,99179.56
2022-11-05T03:48:54.532Z,99182.19
2022-11-05T03:52:01.802Z,99194.38
2022-11-05T03:54:45.498Z,99201.50
2022-11-05T03:57:32.966Z,99195.47
2022-11-05T04:00:23.541Z,99199.19
2022-11-05T04:03:11.977Z,99202.78
2022-11-05T04:06:16.410Z,99203.47
2022-11-05T04:09:23.626Z,99202.22
2022-11-05T04:12:24.725Z,99203.19
2022-11-05T04:15:13.507Z,99195.53
2022-11-05T04:17:56.606Z,99200.03
2022-11-05T04:21:03.893Z,99196.47
2022-11-05T04:24:04.124Z,99204.06
2022-11-05T04:26:53.489Z,99201.50
2022-11-05T04:30:00.466Z,99206.41
2022-11-05T04:32:48.832Z,99210.78
2022-11-05T04:35:31.737Z,99201.88
2022-11-05T04:38:22.777Z,99203.63
2022-11-05T04:41:23.491Z,99202.63
2022-11-05T04:44:12.404Z,99206.31
2022-11-05T04:47:01.482Z,99207.81
2022-11-05T04:49:56.500Z,99208.69
2022-11-05T04:52:45.507Z,99211.91
2022-11-05T04:55:34.384Z,99207.09
2022-11-05T04:58:30.546Z,99205.19
2022-11-05T05:01:17.569Z,99212.31
2022-11-05T05:04:07.472Z,99202.09
2022-11-05T05:06:49.825Z,99203.34
2022-11-05T05:09:38.913Z,99209.50
2022-11-05T05:12:27.976Z,99205.84
2022-11-05T05:15:10.979Z,99197.91
2022-11-05T05:18:02.509Z,99201.78
2022-11-05T05:21:03.331Z,99202.28
2022-11-05T05:23:54.501Z,99199.56
2022-11-05T05:26:37.140Z,99195.03
2022-11-05T05:29:26.487Z,99193.38
2022-11-05T05:32:08.782Z,99193.16
2022-11-05T05:34:57.412Z,99198.06
2022-11-05T05:37:46.499Z,99196.28
2022-11-05T05:40:36.399Z,99201.56
2022-11-05T05:43:25.388Z,99200.50
2022-11-05T05:46:09.379Z,99196.06
2022-11-05T05:49:03.659Z,99194.97
2022-11-05T05:51:57.717Z,99182.06
2022-11-05T05:54:42.676Z,99178.53
2022-11-05T05:57:32.488Z,99180.78
2022-11-05T06:00:15.928Z,99183.66
2022-11-05T06:03:04.652Z,99174.38
2022-11-05T06:05:46.746Z,99175.84
2022-11-05T06:08:35.491Z,99171.38
2022-11-05T06:11:17.836Z,99174.16
2022-11-05T06:14:06.500Z,99171.53
2022-11-05T06:16:48.942Z,99161.94
2022-11-05T06:19:37.549Z,99157.31
2022-11-05T06:22:19.831Z,99146.16
2022-11-05T06:25:08.536Z,99147.78
2022-11-05T06:27:50.866Z,99144.47
2022-11-05T06:30:39.505Z,99142.00
2022-11-05T06:33:29.177Z,99140.03
2022-11-05T06:36:22.533Z,99137.75
2022-11-05T06:39:04.735Z,99130.41
2022-11-05T06:45:02.486Z,99117.28
2022-11-05T06:47:51.496Z,99111.88
2022-11-05T06:50:39.891Z,99117.13
2022-11-05T06:53:22.449Z,99101.72
2022-11-05T06:56:15.487Z,99096.22
2022-11-05T06:59:04.458Z,99084.13
2022-11-05T07:01:53.829Z,99083.00
2022-11-05T07:04:35.472Z,99081.09
2022-11-05T07:07:23.743Z,99075.97
2022-11-05T07:10:05.611Z,99075.28
2022-11-05T07:12:54.227Z,99067.19
2022-11-05T07:15:36.510Z,99067.06
2022-11-05T07:18:25.826Z,99063.38
2022-11-05T07:21:08.403Z,99052.19
2022-11-05T07:23:57.923Z,99047.00
2022-11-05T07:26:39.405Z,99046.81
2022-11-05T07:29:21.865Z,99046.81
2022-11-05T07:32:10.469Z,99043.78
2022-11-05T07:34:59.497Z,99034.63
2022-11-05T07:37:41.906Z,99029.50
2022-11-05T07:40:33.502Z,99030.88
2022-11-05T07:43:15.919Z,99025.16
2022-11-05T07:46:06.687Z,99016.41
2022-11-05T07:49:04.319Z,99009.91
2022-11-05T07:51:53.478Z,99006.81
2022-11-05T07:57:45.555Z,98987.19
2022-11-05T08:00:28.764Z,98984.00
2022-11-05T08:03:19.060Z,98986.06
2022-11-05T08:06:08.492Z,98972.41
2022-11-05T08:08:50.918Z,98978.31
2022-11-05T08:11:40.454Z,98983.75
2022-11-05T08:14:23.610Z,98970.53
2022-11-05T08:17:18.293Z,98964.00
2022-11-05T08:20:00.901Z,98970.53
2022-11-05T08:22:55.466Z,98958.97
2022-11-05T08:25:44.480Z,98962.22
2022-11-05T08:28:34.463Z,98965.94
2022-11-05T08:31:19.607Z,98959.22
2022-11-05T08:34:08.935Z,98960.22
2022-11-05T08:36:57.465Z,98951.25
2022-11-05T08:39:46.460Z,98953.25
2022-11-05T08:42:29.149Z,98951.47
2022-11-05T08:45:18.751Z,98937.81
2022-11-05T08:48:09.203Z,98936.69
2022-11-05T08:50:53.455Z,98932.97
2022-11-05T08:53:42.467Z,98940.66
2022-11-05T08:56:24.863Z,98927.72
2022-11-05T08:59:13.484Z,98919.50
2022-11-05T09:01:56.071Z,98919.94
2022-11-05T09:04:45.368Z,98924.03
2022-11-05T09:07:27.905Z,98923.72
2022-11-05T09:10:17.856Z,98919.63
2022-11-05T09:12:59.914Z,98916.38
2022-11-05T09:15:48.479Z,98915.09
2022-11-05T09:18:30.902Z,98903.56
2022-11-05T09:21:19.795Z,98911.38
2022-11-05T09:24:01.834Z,98903.91
2022-11-05T09:26:51.464Z,98905.53
2022-11-05T09:29:33.756Z,98902.09
2022-11-05T09:32:26.458Z,98906.28
2022-11-05T09:35:09.431Z,98896.88
2022-11-05T09:38:10.466Z,98900.09
2022-11-05T09:41:09.922Z,98896.56
2022-11-05T09:44:21.531Z,98894.66
2022-11-05T09:47:15.890Z,98888.78
2022-11-05T09:50:03.456Z,98888.81
2022-11-05T09:52:52.732Z,98885.72
2022-11-05T09:55:43.463Z,98892.75
2022-11-05T09:58:52.016Z,98885.41
2022-11-05T10:01:45.609Z,98885.53
2022-11-05T10:04:38.720Z,98883.63
2022-11-05T10:07:26.756Z,98883.81
2022-11-05T10:10:39.514Z,98879.25
2022-11-05T10:13:25.772Z,98874.06
2022-11-05T10:16:38.503Z,98880.50
2022-11-05T10:19:33.922Z,98879.44
2022-11-05T10:22:26.474Z,98876.69
2022-11-05T10:25:09.322Z,98876.00
2022-11-05T10:28:14.425Z,98878.44
2022-11-05T10:31:12.177Z,98872.44
2022-11-05T10:34:12.899Z,98874.56
2022-11-05T10:36:55.520Z,98870.16
2022-11-05T10:39:44.967Z,98871.28
2022-11-05T10:42:45.501Z,98870.00
2022-11-05T10:46:11.471Z,98863.50
2022-11-05T10:48:53.904Z,98862.56
2022-11-05T10:51:42.439Z,98866.25
2022-11-05T10:54:38.341Z,98860.72
2022-11-05T10:57:47.731Z,98850.84
2022-11-05T11:00:32.350Z,98846.78
2022-11-05T11:04:04.516Z,98850.19
2022-11-05T11:06:51.647Z,98842.41
2022-11-05T11:09:43.464Z,98849.53
2022-11-05T11:12:51.481Z,98844.03
2022-11-05T11:15:40.890Z,98851.00
2022-11-05T11:18:39.736Z,98843.31
2022-11-05T11:21:34.453Z,98842.16
2022-11-05T11:24:36.439Z,98844.78
2022-11-05T11:27:39.905Z,98839.72
2022-11-05T11:30:27.453Z,98836.88
2022-11-05T11:33:13.543Z,98837.13
2022-11-05T11:36:02.506Z,98833.47
2022-11-05T11:38:45.110Z,98836.78
2022-11-05T11:41:52.229Z,98821.91
2022-11-05T11:44:49.436Z,98833.13
2022-11-05T11:47:32.015Z,98832.16
2022-11-05T11:50:42.170Z,98835.34
2022-11-05T11:53:41.471Z,98830.50
2022-11-05T11:56:38.439Z,98825.94
2022-11-05T12:00:06.669Z,98827.25
2022-11-05T12:03:25.923Z,98832.44
2022-11-05T12:06:54.100Z,98825.31
2022-11-05T12:09:59.915Z,98835.50
2022-11-05T12:13:00.387Z,98830.47
2022-11-05T12:16:01.345Z,98834.34
2022-11-05T12:19:08.450Z,98831.72
2022-11-05T12:21:57.150Z,98838.03
2022-11-05T12:24:55.435Z,98836.50
2022-11-05T12:27:40.930Z,98843.28
2022-11-05T12:30:30.453Z,98845.63
2022-11-05T12:33:31.886Z,98849.09
2022-11-05T12:36:29.354Z,98845.63
2022-11-05T12:39:55.891Z,98849.84
2022-11-05T12:42:44.340Z,98846.53
2022-11-05T12:46:04.588Z,98853.09
2022-11-05T12:48:53.437Z,98846.97
2022-11-05T12:51:45.419Z,98842.84
2022-11-05T12:54:58.465Z,98848.28
2022-11-05T12:57:54.088Z,98852.34
2022-11-05T13:00:38.355Z,98852.53
2022-11-05T13:03:36.430Z,98852.53
2022-11-05T13:06:25.332Z,98861.94
2022-11-05T13:09:22.359Z,98865.09
2022-11-05T13:12:19.780Z,98869.94
2022-11-05T13:15:14.435Z,98877.19
2022-11-05T13:18:21.389Z,98881.50
2022-11-05T13:21:15.729Z,98884.56
2022-11-05T13:24:01.920Z,98888.56
2022-11-05T13:27:14.479Z,98891.56
2022-11-05T13:30:10.866Z,98890.06
2022-11-05T13:33:29.444Z,98895.78
2022-11-05T13:37:01.439Z,98898.97
2022-11-05T13:40:10.430Z,98896.00
2022-11-05T13:43:27.339Z,98897.53
2022-11-05T13:46:37.475Z,98892.31
2022-11-05T13:49:44.452Z,98902.06
2022-11-05T13:53:17.618Z,98900.06
2022-11-05T13:56:11.395Z,98907.63
2022-11-05T13:59:02.868Z,98905.31
2022-11-05T14:02:03.525Z,98910.44
2022-11-05T14:05:03.573Z,98914.63
2022-11-05T14:07:54.434Z,98923.56
2022-11-05T14:10:43.873Z,98915.72
2022-11-05T14:13:32.398Z,98910.19
2022-11-05T14:16:26.567Z,98914.81
2022-11-05T14:19:33.513Z,98913.66
2022-11-05T14:22:45.963Z,98925.69
2022-11-05T14:25:27.364Z,98919.56
2022-11-05T14:28:57.846Z,98920.81
2022-11-05T14:32:06.967Z,98922.69
2022-11-05T14:34:51.767Z,98924.72
2022-11-05T14:37:50.380Z,98928.63
2022-11-05T14:40:47.984Z,98923.81
2022-11-05T14:43:33.476Z,98927.69
2022-11-05T14:46:22.426Z,98931.03
2022-11-05T14:49:17.379Z,98933.94
2022-11-05T14:52:13.442Z,98938.06
2022-11-05T14:55:13.433Z,98939.03
2022-11-05T14:58:02.812Z,98939.84
2022-11-05T15:00:48.407Z,98933.44
2022-11-05T15:03:48.948Z,98938.41
2022-11-05T15:06:37.488Z,98935.19
2022-11-05T15:09:30.746Z,98943.41
2022-11-05T15:12:24.704Z,98940.25
2022-11-05T15:15:31.863Z,98935.34
2022-11-05T15:18:40.366Z,98938.94
2022-11-05T15:21:23.604Z,98949.84
2022-11-05T15:24:12.360Z,98944.16
2022-11-05T15:27:12.917Z,98943.94
2022-11-05T15:29:55.366Z,98953.69
2022-11-05T15:32:38.635Z,98955.34
2022-11-05T15:35:37.344Z,98960.09
2022-11-05T15:38:40.722Z,98959.69
2022-11-05T15:41:28.454Z,98968.03
2022-11-05T15:44:35.355Z,98971.00
2022-11-05T15:47:36.448Z,98963.28
2022-11-05T15:50:25.352Z,98974.47
2022-11-05T15:53:35.964Z,98974.56
2022-11-05T15:56:26.329Z,98967.06
2022-11-05T15:59:27.991Z,98965.13
2022-11-05T16:02:31.577Z,98973.28
2022-11-05T16:05:22.197Z,98983.13
2022-11-05T16:08:09.454Z,98969.09
2022-11-05T16:11:03.322Z,98972.44
2022-11-05T16:13:55.839Z,98984.97
2022-11-05T16:16:37.607Z,98981.13
2022-11-05T16:19:52.344Z,98982.31
2022-11-05T16:22:48.398Z,98975.09
2022-11-05T16:25:56.333Z,98971.16
2022-11-05T16:28:44.717Z,98972.06
2022-11-05T16:32:04.048Z,98963.41
2022-11-05T16:35:05.714Z,98973.28
2022-11-05T16:37:52.210Z,98966.03
2022-11-05T16:40:41.584Z,98960.75
2022-11-05T16:43:34.574Z,98962.28
2022-11-05T16:46:23.871Z,98965.69
2022-11-05T16:49:12.349Z,98964.81
2022-11-05T16:52:03.295Z,98957.66
2022-11-05T16:54:46.436Z,98961.84
2022-11-05T16:57:44.278Z,98966.16
2022-11-05T17:00:34.435Z,98966.63
2022-11-05T17:03:24.952Z,98978.31
2022-11-05T17:06:14.058Z,98990.31
2022-11-05T17:08:56.669Z,99001.72
2022-11-05T17:11:44.737Z,99011.44
2022-11-05T17:14:26.476Z,99014.91
2022-11-05T17:17:14.740Z,99021.69
2022-11-05T17:19:56.358Z,99025.78
2022-11-05T17:22:45.428Z,99021.84
2022-11-05T17:25:27.808Z,99017.00
2022-11-05T17:28:17.542Z,99025.53
2022-11-05T17:31:07.353Z,99024.34
2022-11-05T17:33:56.350Z,99043.41
2022-11-05T17:36:38.706Z,99047.03
2022-11-05T17:39:31.434Z,99045.63
2022-11-05T17:42:13.783Z,99052.75
2022-11-05T17:45:02.445Z,99053.16
2022-11-05T17:47:44.711Z,99064.16
2022-11-05T17:50:35.154Z,99078.97
2022-11-05T17:53:19.165Z,99080.91
2022-11-05T17:56:08.443Z,99090.19
2022-11-05T17:58:58.357Z,99094.78
2022-11-05T18:01:43.694Z,99097.03
2022-11-05T18:04:26.375Z,99098.38
2022-11-05T18:07:15.455Z,99103.28
2022-11-05T18:10:05.062Z,99100.59
2022-11-05T18:12:48.437Z,99104.63
2022-11-05T18:15:37.497Z,99127.84
2022-11-05T18:18:20.867Z,99210.91
2022-11-05T18:21:09.476Z,99243.84
2022-11-05T18:23:52.128Z,99247.97
2022-11-05T18:26:43.084Z,99274.75
2022-11-05T18:29:27.126Z,99285.72
2022-11-05T18:32:17.528Z,99303.56
2022-11-05T18:35:00.602Z,99293.63
2022-11-05T18:37:51.445Z,99285.78
2022-11-05T18:40:33.783Z,99296.75
2022-11-05T18:43:22.326Z,99296.84
2022-11-05T18:46:29.454Z,99310.09
2022-11-05T18:49:20.922Z,99302.75
2022-11-05T18:52:05.567Z,99312.31
2022-11-05T18:54:47.795Z,99315.91
2022-11-05T18:57:36.935Z,99324.38
2022-11-05T19:00:19.423Z,99320.78
2022-11-05T19:03:09.457Z,99314.16
2022-11-05T19:05:53.682Z,99305.78
2022-11-05T19:08:42.417Z,99318.81
2022-11-05T19:11:26.987Z,99311.56
2022-11-05T19:14:15.409Z,99305.59
2022-11-05T19:17:05.301Z,99288.34
2022-11-05T19:19:48.330Z,99286.63
2022-11-05T19:22:37.345Z,99290.59
2022-11-05T19:25:19.910Z,99287.94
2022-11-05T19:28:10.719Z,99286.72
2022-11-05T19:30:53.932Z,99276.69
2022-11-05T19:33:42.418Z,99270.19
2022-11-05T19:36:26.864Z,99286.47
2022-11-05T19:39:17.414Z,99283.13
2022-11-05T19:42:03.200Z,99286.19
2022-11-05T19:44:54.669Z,99285.09
2022-11-05T19:47:37.316Z,99258.25
2022-11-05T19:50:26.489Z,99252.50
2022-11-05T19:53:09.780Z,99249.63
2022-11-05T19:55:58.416Z,99248.06
2022-11-05T19:58:47.815Z,99244.72
2022-11-05T20:01:31.713Z,99243.78
2022-11-05T20:04:19.745Z,99266.78
2022-11-05T20:07:01.312Z,99308.00
2022-11-05T20:09:50.422Z,99336.47
2022-11-05T20:12:32.861Z,99324.72
2022-11-05T20:15:22.414Z,99288.03
2022-11-05T20:18:11.641Z,99253.47
2022-11-05T20:21:12.738Z,99243.56
2022-11-05T20:23:56.403Z,99253.63
2022-11-05T20:26:39.447Z,99251.28
2022-11-05T20:29:22.405Z,99225.25
2022-11-05T20:32:05.060Z,99219.72
2022-11-05T20:35:03.329Z,99214.81
2022-11-05T20:37:48.554Z,99218.25
2022-11-05T20:40:42.610Z,99217.38
2022-11-05T20:43:30.191Z,99211.78
2022-11-05T20:46:23.883Z,99222.28
2022-11-05T20:49:05.755Z,99229.41
2022-11-05T20:51:54.309Z,99223.66
2022-11-05T20:54:43.800Z,99221.06
2022-11-05T20:57:32.562Z,99217.44
2022-11-05T21:00:22.511Z,99224.38
2022-11-05T21:03:04.304Z,99224.81
2022-11-05T21:06:00.903Z,99224.22
2022-11-05T21:08:43.738Z,99217.00
2022-11-05T21:11:27.709Z,99218.72
2022-11-05T21:14:16.401Z,99228.47
2022-11-05T21:16:58.627Z,99230.03
2022-11-05T21:19:49.755Z,99236.59
2022-11-05T21:22:31.807Z,99246.94
2022-11-05T21:25:20.315Z,99245.00
2022-11-05T21:28:03.253Z,99245.41
2022-11-05T21:30:55.389Z,99243.41
2022-11-05T21:33:45.406Z,99232.84
2022-11-05T21:36:27.668Z,99229.69
2022-11-05T21:39:16.287Z,99225.59
2022-11-05T21:41:58.784Z,99217.34
2022-11-05T21:44:47.891Z,99212.09
2022-11-05T21:47:30.277Z,99218.88
2022-11-05T21:50:21.922Z,99235.16
2022-11-05T21:53:22.797Z,99231.75
2022-11-05T21:56:34.307Z,99226.84
2022-11-05T21:59:50.321Z,99216.59
2022-11-05T22:02:45.878Z,99214.88
2022-11-05T22:05:27.685Z,99216.03
2022-11-05T22:08:10.469Z,99224.06
2022-11-05T22:10:59.303Z,99211.59
2022-11-05T22:13:47.688Z,99211.09
2022-11-05T22:16:29.454Z,99209.56
2022-11-05T22:19:12.211Z,99199.72
2022-11-05T22:22:01.463Z,99202.16
2022-11-05T22:24:44.074Z,99218.81
2022-11-05T22:27:34.401Z,99203.84
2022-11-05T22:30:23.392Z,99221.03
2022-11-05T22:33:12.291Z,99210.84
2022-11-05T22:35:54.537Z,99203.53
2022-11-05T22:38:45.397Z,99199.09
2022-11-05T22:41:34.289Z,99207.56
2022-11-05T22:44:25.343Z,99199.63
2022-11-05T22:47:08.165Z,99212.44
2022-11-05T22:49:57.380Z,99209.50
2022-11-05T22:52:39.660Z,99215.28
2022-11-05T22:55:29.016Z,99207.34
2022-11-05T22:58:17.300Z,99201.66
2022-11-05T23:01:06.425Z,99193.91
2022-11-05T23:03:56.394Z,99207.34
2022-11-05T23:07:05.373Z,99204.50
2022-11-05T23:10:12.375Z,99210.22
2022-11-05T23:12:56.392Z,99206.16
2022-11-05T23:16:03.365Z,99206.75
2022-11-05T23:19:04.252Z,99198.91
2022-11-05T23:22:11.451Z,99194.28
2022-11-05T23:25:04.338Z,99181.06
2022-11-05T23:27:55.369Z,99168.78
2022-11-05T23:30:37.645Z,99161.16
2022-11-05T23:33:29.403Z,99186.63
2022-11-05T23:36:36.324Z,99180.00
2022-11-05T23:39:24.673Z,99179.38
2022-11-05T23:42:25.851Z,99175.50
2022-11-05T23:45:33.388Z,99160.56
2022-11-05T23:48:52.381Z,99147.78
2022-11-05T23:51:34.568Z,99165.69
2022-11-05T23:54:23.367Z,99169.28
2022-11-05T23:57:12.406Z,99172.91
